createdAt,value
2017-10-17T00:00:37.360Z,1011.03
2017-10-17T00:01:17.879Z,1011.04
2017-10-17T00:01:58.428Z,1011.07
2017-10-17T00:02:39.109Z,1011.01
2017-10-17T00:03:19.578Z,1011.05
2017-10-17T00:04:00.257Z,1011.05
2017-10-17T00:04:40.868Z,1011.08
2017-10-17T00:05:21.375Z,1011.12
2017-10-17T00:06:01.966Z,1011.11
2017-10-17T00:06:42.476Z,1011.14
2017-10-17T00:07:23.056Z,1011.19
2017-10-17T00:08:03.730Z,1011.19
2017-10-17T00:08:44.208Z,1011.16
2017-10-17T00:09:24.792Z,1011.18
2017-10-17T00:10:05.365Z,1011.16
2017-10-17T00:10:45.882Z,1011.17
2017-10-17T00:11:26.416Z,1011.15
2017-10-17T00:12:06.962Z,1011.16
2017-10-17T00:12:47.463Z,1011.15
2017-10-17T00:13:27.986Z,1011.18
2017-10-17T00:14:08.584Z,1011.16
2017-10-17T00:14:49.105Z,1011.18
2017-10-17T00:15:29.711Z,1011.13
2017-10-17T00:16:10.345Z,1011.15
2017-10-17T00:16:50.769Z,1011.11
2017-10-17T00:17:31.326Z,1011.13
2017-10-17T00:18:11.877Z,1011.14
2017-10-17T00:18:52.416Z,1011.16
2017-10-17T00:19:32.954Z,1011.15
2017-10-17T00:20:13.527Z,1011.15
2017-10-17T00:20:54.084Z,1011.1
2017-10-17T00:21:34.668Z,1011.14
2017-10-17T00:22:15.268Z,1011.15
2017-10-17T00:22:55.780Z,1011.16
2017-10-17T00:23:36.552Z,1011.07
2017-10-17T00:24:17.171Z,1011.12
2017-10-17T00:24:57.680Z,1011.11
2017-10-17T00:25:38.224Z,1011.12
2017-10-17T00:26:18.756Z,1011.08
2017-10-17T00:26:59.359Z,1011.14
2017-10-17T00:27:39.879Z,1011.14
2017-10-17T00:28:20.424Z,1011.14
2017-10-17T00:29:01.122Z,1011.14
2017-10-17T00:29:41.732Z,1011.16
2017-10-17T00:30:22.273Z,1011.12
2017-10-17T00:31:02.814Z,1011.13
2017-10-17T00:31:43.387Z,1011.15
2017-10-17T00:32:23.889Z,1011.18
2017-10-17T00:33:04.461Z,1011.16
2017-10-17T00:33:45.035Z,1011.1
2017-10-17T00:34:25.628Z,1011.1
2017-10-17T00:35:06.217Z,1011.1
2017-10-17T00:35:46.965Z,1011.1
2017-10-17T00:36:27.532Z,1011.14
2017-10-17T00:37:08.034Z,1011.12
2017-10-17T00:37:48.602Z,1011.12
2017-10-17T00:38:29.191Z,1011.09
2017-10-17T00:39:09.720Z,1011.12
2017-10-17T00:39:50.252Z,1011.08
2017-10-17T00:40:30.777Z,1011.13
2017-10-17T00:41:11.338Z,1011.09
2017-10-17T00:41:52.037Z,1011.09
2017-10-17T00:42:32.572Z,1011.12
2017-10-17T00:43:13.109Z,1011.1
2017-10-17T00:43:53.714Z,1011.1
2017-10-17T00:44:34.261Z,1011.13
2017-10-17T00:45:14.784Z,1011.04
2017-10-17T00:45:55.335Z,1011.07
2017-10-17T00:46:35.873Z,1011.1
2017-10-17T00:47:16.433Z,1011.06
2017-10-17T00:47:56.955Z,1011.08
2017-10-17T00:48:37.501Z,1011.08
2017-10-17T00:49:18.082Z,1011.14
2017-10-17T00:49:58.604Z,1011.17
2017-10-17T00:50:39.173Z,1011.13
2017-10-17T00:51:19.733Z,1011.14
2017-10-17T00:52:00.198Z,1011.12
2017-10-17T00:52:40.767Z,1011.12
2017-10-17T00:53:21.339Z,1011.11
2017-10-17T00:54:01.852Z,1011.09
2017-10-17T00:54:42.438Z,1011.1
2017-10-17T00:55:23.238Z,1011.07
2017-10-17T00:56:03.763Z,1011.05
2017-10-17T00:56:44.326Z,1011.04
2017-10-17T00:57:24.866Z,1011.03
2017-10-17T00:58:05.960Z,1011.04
2017-10-17T00:58:46.512Z,1011.01
2017-10-17T00:59:27.046Z,1010.98
2017-10-17T01:00:07.592Z,1011.01
2017-10-17T01:00:48.145Z,1010.99
2017-10-17T01:01:28.700Z,1010.98
2017-10-17T01:02:09.239Z,1011.02
2017-10-17T01:02:49.802Z,1011.06
2017-10-17T01:03:30.354Z,1011.03
2017-10-17T01:04:10.889Z,1011.05
2017-10-17T01:04:51.449Z,1011.03
2017-10-17T01:05:31.927Z,1011.02
2017-10-17T01:06:12.546Z,1011.02
2017-10-17T01:06:53.037Z,1011.06
2017-10-17T01:07:33.570Z,1011.04
2017-10-17T01:08:14.154Z,1011.05
2017-10-17T01:08:54.672Z,1011.02
2017-10-17T01:09:35.230Z,1011.01
2017-10-17T01:10:15.849Z,1010.94
2017-10-17T01:10:56.367Z,1010.98
2017-10-17T01:11:36.954Z,1010.94
2017-10-17T01:12:17.439Z,1010.93
2017-10-17T01:12:58.040Z,1010.92
2017-10-17T01:13:38.622Z,1010.89
2017-10-17T01:14:19.144Z,1010.93
2017-10-17T01:14:59.668Z,1010.92
2017-10-17T01:15:40.222Z,1010.92
2017-10-17T01:16:20.789Z,1010.9
2017-10-17T01:17:01.363Z,1010.87
2017-10-17T01:17:41.929Z,1010.86
2017-10-17T01:18:22.465Z,1010.85
2017-10-17T01:19:03.036Z,1010.85
2017-10-17T01:19:43.601Z,1010.84
2017-10-17T01:20:24.183Z,1010.86
2017-10-17T01:21:04.758Z,1010.87
2017-10-17T01:21:45.261Z,1010.87
2017-10-17T01:22:25.796Z,1010.88
2017-10-17T01:23:06.363Z,1010.82
2017-10-17T01:23:46.891Z,1010.86
2017-10-17T01:24:28.089Z,1010.86
2017-10-17T01:25:08.676Z,1010.89
2017-10-17T01:25:49.190Z,1010.85
2017-10-17T01:26:29.755Z,1010.85
2017-10-17T01:27:10.324Z,1010.85
2017-10-17T01:27:50.890Z,1010.84
2017-10-17T01:28:31.402Z,1010.84
2017-10-17T01:29:11.943Z,1010.83
2017-10-17T01:29:52.553Z,1010.82
2017-10-17T01:30:33.029Z,1010.79
2017-10-17T01:31:13.564Z,1010.81
2017-10-17T01:31:54.107Z,1010.79
2017-10-17T01:32:34.692Z,1010.81
2017-10-17T01:33:15.324Z,1010.8
2017-10-17T01:33:55.916Z,1010.8
2017-10-17T01:34:36.527Z,1010.78
2017-10-17T01:35:17.103Z,1010.77
2017-10-17T01:35:57.677Z,1010.75
2017-10-17T01:36:38.243Z,1010.76
2017-10-17T01:37:18.787Z,1010.79
2017-10-17T01:37:59.303Z,1010.76
2017-10-17T01:38:39.844Z,1010.76
2017-10-17T01:39:20.338Z,1010.75
2017-10-17T01:40:00.912Z,1010.77
2017-10-17T01:40:41.482Z,1010.77
2017-10-17T01:41:21.951Z,1010.75
2017-10-17T01:42:02.492Z,1010.78
2017-10-17T01:42:43.132Z,1010.76
2017-10-17T01:43:23.606Z,1010.77
2017-10-17T01:44:04.147Z,1010.75
2017-10-17T01:44:44.672Z,1010.78
2017-10-17T01:45:25.197Z,1010.82
2017-10-17T01:46:05.763Z,1010.78
2017-10-17T01:46:46.301Z,1010.78
2017-10-17T01:47:26.820Z,1010.83
2017-10-17T01:48:07.335Z,1010.8
2017-10-17T01:48:47.913Z,1010.82
2017-10-17T01:49:28.460Z,1010.85
2017-10-17T01:50:08.967Z,1010.85
2017-10-17T01:50:49.554Z,1010.83
2017-10-17T01:51:30.188Z,1010.83
2017-10-17T01:52:10.700Z,1010.85
2017-10-17T01:52:51.291Z,1010.81
2017-10-17T01:53:31.801Z,1010.81
2017-10-17T01:54:12.318Z,1010.86
2017-10-17T01:54:52.852Z,1010.85
2017-10-17T01:55:33.402Z,1010.86
2017-10-17T01:56:13.933Z,1010.85
2017-10-17T01:56:54.473Z,1010.86
2017-10-17T01:57:35.033Z,1010.83
2017-10-17T01:58:15.573Z,1010.82
2017-10-17T01:58:56.116Z,1010.82
2017-10-17T01:59:36.708Z,1010.84
2017-10-17T02:00:17.249Z,1010.83
2017-10-17T02:00:57.798Z,1010.83
2017-10-17T02:01:38.326Z,1010.85
2017-10-17T02:02:18.881Z,1010.87
2017-10-17T02:02:59.434Z,1010.86
2017-10-17T02:03:39.988Z,1010.82
2017-10-17T02:04:20.652Z,1010.86
2017-10-17T02:05:01.205Z,1010.87
2017-10-17T02:05:41.797Z,1010.86
2017-10-17T02:06:22.493Z,1010.85
2017-10-17T02:07:02.998Z,1010.86
2017-10-17T02:07:43.547Z,1010.83
2017-10-17T02:08:24.109Z,1010.81
2017-10-17T02:09:04.669Z,1010.84
2017-10-17T02:09:45.219Z,1010.82
2017-10-17T02:10:25.846Z,1010.86
2017-10-17T02:11:06.426Z,1010.83
2017-10-17T02:11:46.950Z,1010.84
2017-10-17T02:12:27.501Z,1010.84
2017-10-17T02:13:08.020Z,1010.84
2017-10-17T02:13:48.624Z,1010.85
2017-10-17T02:14:29.144Z,1010.82
2017-10-17T02:15:09.664Z,1010.83
2017-10-17T02:15:50.200Z,1010.83
2017-10-17T02:16:30.727Z,1010.84
2017-10-17T02:17:11.301Z,1010.87
2017-10-17T02:17:51.840Z,1010.85
2017-10-17T02:18:32.350Z,1010.83
2017-10-17T02:19:12.880Z,1010.85
2017-10-17T02:19:53.413Z,1010.83
2017-10-17T02:20:33.950Z,1010.86
2017-10-17T02:21:14.555Z,1010.8
2017-10-17T02:21:55.090Z,1010.82
2017-10-17T02:22:35.636Z,1010.82
2017-10-17T02:23:16.220Z,1010.8
2017-10-17T02:23:56.751Z,1010.79
2017-10-17T02:24:37.278Z,1010.81
2017-10-17T02:25:17.873Z,1010.79
2017-10-17T02:25:58.376Z,1010.83
2017-10-17T02:26:38.934Z,1010.76
2017-10-17T02:27:19.468Z,1010.86
2017-10-17T02:27:59.975Z,1010.85
2017-10-17T02:28:40.538Z,1010.8
2017-10-17T02:29:21.059Z,1010.82
2017-10-17T02:30:01.634Z,1010.85
2017-10-17T02:30:42.153Z,1010.85
2017-10-17T02:31:22.642Z,1010.78
2017-10-17T02:32:03.173Z,1010.8
2017-10-17T02:32:43.705Z,1010.81
2017-10-17T02:33:24.343Z,1010.8
2017-10-17T02:34:04.841Z,1010.81
2017-10-17T02:34:45.338Z,1010.77
2017-10-17T02:35:25.891Z,1010.78
2017-10-17T02:36:06.409Z,1010.8
2017-10-17T02:36:47.002Z,1010.79
2017-10-17T02:37:27.501Z,1010.79
2017-10-17T02:38:08.034Z,1010.79
2017-10-17T02:38:48.612Z,1010.79
2017-10-17T02:39:29.159Z,1010.75
2017-10-17T02:40:09.659Z,1010.82
2017-10-17T02:40:50.266Z,1010.8
2017-10-17T02:41:30.782Z,1010.81
2017-10-17T02:42:11.291Z,1010.83
2017-10-17T02:42:51.857Z,1010.8
2017-10-17T02:43:32.354Z,1010.82
2017-10-17T02:44:12.976Z,1010.83
2017-10-17T02:44:53.484Z,1010.82
2017-10-17T02:45:34.040Z,1010.83
2017-10-17T02:46:14.569Z,1010.8
2017-10-17T02:46:55.102Z,1010.81
2017-10-17T02:47:35.649Z,1010.78
2017-10-17T02:48:16.216Z,1010.78
2017-10-17T02:48:56.760Z,1010.81
2017-10-17T02:49:37.302Z,1010.78
2017-10-17T02:50:17.872Z,1010.72
2017-10-17T02:50:58.416Z,1010.78
2017-10-17T02:51:38.968Z,1010.8
2017-10-17T02:52:19.476Z,1010.76
2017-10-17T02:53:00.070Z,1010.78
2017-10-17T02:53:40.628Z,1010.76
2017-10-17T02:54:21.171Z,1010.75
2017-10-17T02:55:01.661Z,1010.77
2017-10-17T02:55:42.228Z,1010.76
2017-10-17T02:56:22.695Z,1010.78
2017-10-17T02:57:03.254Z,1010.76
2017-10-17T02:57:43.865Z,1010.79
2017-10-17T02:58:24.385Z,1010.74
2017-10-17T02:59:04.931Z,1010.78
2017-10-17T02:59:45.435Z,1010.79
2017-10-17T03:00:25.978Z,1010.74
2017-10-17T03:01:06.513Z,1010.76
2017-10-17T03:01:47.068Z,1010.7
2017-10-17T03:02:27.573Z,1010.75
2017-10-17T03:03:08.185Z,1010.74
2017-10-17T03:03:48.733Z,1010.72
2017-10-17T03:04:29.252Z,1010.75
2017-10-17T03:05:09.804Z,1010.73
2017-10-17T03:05:50.305Z,1010.75
2017-10-17T03:06:30.846Z,1010.71
2017-10-17T03:07:11.397Z,1010.7
2017-10-17T03:07:51.933Z,1010.76
2017-10-17T03:08:32.495Z,1010.7
2017-10-17T03:09:12.966Z,1010.73
2017-10-17T03:09:53.565Z,1010.71
2017-10-17T03:10:34.140Z,1010.7
2017-10-17T03:11:14.617Z,1010.75
2017-10-17T03:11:55.138Z,1010.73
2017-10-17T03:12:35.696Z,1010.7
2017-10-17T03:13:16.229Z,1010.69
2017-10-17T03:13:56.791Z,1010.67
2017-10-17T03:14:37.307Z,1010.73
2017-10-17T03:15:17.872Z,1010.7
2017-10-17T03:15:58.404Z,1010.72
2017-10-17T03:16:38.928Z,1010.67
2017-10-17T03:17:19.432Z,1010.77
2017-10-17T03:17:59.944Z,1010.84
2017-10-17T03:18:40.474Z,1010.78
2017-10-17T03:19:21.052Z,1010.75
2017-10-17T03:20:01.613Z,1010.81
2017-10-17T03:20:42.162Z,1010.78
2017-10-17T03:21:22.709Z,1010.78
2017-10-17T03:22:03.203Z,1010.78
2017-10-17T03:22:43.761Z,1010.79
2017-10-17T03:23:24.342Z,1010.73
2017-10-17T03:24:04.916Z,1010.73
2017-10-17T03:24:45.409Z,1010.74
2017-10-17T03:25:25.943Z,1010.7
2017-10-17T03:26:06.507Z,1010.69
2017-10-17T03:26:46.988Z,1010.69
2017-10-17T03:27:27.569Z,1010.68
2017-10-17T03:28:08.127Z,1010.7
2017-10-17T03:28:48.709Z,1010.69
2017-10-17T03:29:29.228Z,1010.67
2017-10-17T03:30:09.800Z,1010.69
2017-10-17T03:30:50.314Z,1010.72
2017-10-17T03:31:30.904Z,1010.72
2017-10-17T03:32:11.401Z,1010.68
2017-10-17T03:32:51.974Z,1010.71
2017-10-17T03:33:32.537Z,1010.7
2017-10-17T03:34:13.019Z,1010.74
2017-10-17T03:34:53.562Z,1010.67
2017-10-17T03:35:34.132Z,1010.72
2017-10-17T03:36:14.840Z,1010.7
2017-10-17T03:36:55.379Z,1010.69
2017-10-17T03:37:35.911Z,1010.69
2017-10-17T03:38:16.477Z,1010.69
2017-10-17T03:38:57.030Z,1010.69
2017-10-17T03:39:37.523Z,1010.69
2017-10-17T03:40:18.059Z,1010.72
2017-10-17T03:40:58.629Z,1010.72
2017-10-17T03:41:39.226Z,1010.73
2017-10-17T03:42:19.726Z,1010.75
2017-10-17T03:43:00.269Z,1010.69
2017-10-17T03:43:40.834Z,1010.71
2017-10-17T03:44:21.352Z,1010.71
2017-10-17T03:45:01.905Z,1010.7
2017-10-17T03:45:42.464Z,1010.73
2017-10-17T03:46:22.963Z,1010.75
2017-10-17T03:47:03.489Z,1010.7
2017-10-17T03:47:44.096Z,1010.67
2017-10-17T03:48:24.565Z,1010.69
2017-10-17T03:49:05.152Z,1010.69
2017-10-17T03:49:45.707Z,1010.73
2017-10-17T03:50:26.216Z,1010.7
2017-10-17T03:51:06.747Z,1010.7
2017-10-17T03:51:47.294Z,1010.66
2017-10-17T03:52:27.843Z,1010.65
2017-10-17T03:53:08.357Z,1010.66
2017-10-17T03:53:48.871Z,1010.67
2017-10-17T03:54:29.424Z,1010.64
2017-10-17T03:55:09.921Z,1010.69
2017-10-17T03:55:50.628Z,1010.72
2017-10-17T03:56:31.108Z,1010.76
2017-10-17T03:57:11.729Z,1010.78
2017-10-17T03:57:52.232Z,1010.79
2017-10-17T03:58:32.790Z,1010.82
2017-10-17T03:59:13.350Z,1010.8
2017-10-17T03:59:53.911Z,1010.85
2017-10-17T04:00:34.491Z,1010.79
2017-10-17T04:01:15.041Z,1010.8
2017-10-17T04:01:55.605Z,1010.78
2017-10-17T04:02:36.052Z,1010.82
2017-10-17T04:03:16.658Z,1010.77
2017-10-17T04:03:57.216Z,1010.82
2017-10-17T04:04:37.744Z,1010.82
2017-10-17T04:05:18.222Z,1010.81
2017-10-17T04:05:58.804Z,1010.83
2017-10-17T04:06:39.364Z,1010.81
2017-10-17T04:07:19.947Z,1010.85
2017-10-17T04:08:00.470Z,1010.84
2017-10-17T04:08:41.000Z,1010.81
2017-10-17T04:09:21.539Z,1010.82
2017-10-17T04:10:02.100Z,1010.83
2017-10-17T04:10:42.666Z,1010.84
2017-10-17T04:11:23.220Z,1010.82
2017-10-17T04:12:03.794Z,1010.8
2017-10-17T04:12:44.279Z,1010.78
2017-10-17T04:13:24.861Z,1010.79
2017-10-17T04:14:05.368Z,1010.75
2017-10-17T04:14:45.928Z,1010.74
2017-10-17T04:15:26.540Z,1010.76
2017-10-17T04:16:07.161Z,1010.78
2017-10-17T04:16:47.656Z,1010.83
2017-10-17T04:17:28.210Z,1010.84
2017-10-17T04:18:08.734Z,1010.83
2017-10-17T04:18:49.304Z,1010.87
2017-10-17T04:19:29.818Z,1010.84
2017-10-17T04:20:10.360Z,1010.87
2017-10-17T04:20:50.885Z,1010.83
2017-10-17T04:21:31.477Z,1010.83
2017-10-17T04:22:12.033Z,1010.82
2017-10-17T04:22:52.521Z,1010.78
2017-10-17T04:23:33.056Z,1010.81
2017-10-17T04:24:13.578Z,1010.79
2017-10-17T04:24:54.116Z,1010.82
2017-10-17T04:25:34.680Z,1010.74
2017-10-17T04:26:15.180Z,1010.78
2017-10-17T04:26:55.732Z,1010.77
2017-10-17T04:27:36.289Z,1010.7
2017-10-17T04:28:16.811Z,1010.71
2017-10-17T04:28:57.447Z,1010.67
2017-10-17T04:29:37.978Z,1010.74
2017-10-17T04:30:18.502Z,1010.72
2017-10-17T04:30:59.080Z,1010.69
2017-10-17T04:31:39.587Z,1010.7
2017-10-17T04:32:20.199Z,1010.71
2017-10-17T04:33:00.751Z,1010.66
2017-10-17T04:33:41.331Z,1010.65
2017-10-17T04:34:21.836Z,1010.62
2017-10-17T04:35:02.387Z,1010.65
2017-10-17T04:35:42.906Z,1010.65
2017-10-17T04:36:23.472Z,1010.63
2017-10-17T04:37:04.076Z,1010.63
2017-10-17T04:37:44.570Z,1010.65
2017-10-17T04:38:25.104Z,1010.64
2017-10-17T04:39:05.650Z,1010.69
2017-10-17T04:39:46.234Z,1010.65
2017-10-17T04:40:26.893Z,1010.66
2017-10-17T04:41:07.411Z,1010.65
2017-10-17T04:41:47.941Z,1010.65
2017-10-17T04:42:28.463Z,1010.67
2017-10-17T04:43:09.037Z,1010.67
2017-10-17T04:43:49.530Z,1010.71
2017-10-17T04:44:30.116Z,1010.72
2017-10-17T04:45:10.676Z,1010.68
2017-10-17T04:45:51.220Z,1010.65
2017-10-17T04:46:31.733Z,1010.67
2017-10-17T04:47:12.288Z,1010.69
2017-10-17T04:47:53.100Z,1010.67
2017-10-17T04:48:33.624Z,1010.67
2017-10-17T04:49:14.171Z,1010.7
2017-10-17T04:49:54.704Z,1010.65
2017-10-17T04:50:35.235Z,1010.67
2017-10-17T04:51:15.822Z,1010.65
2017-10-17T04:51:56.347Z,1010.69
2017-10-17T04:52:36.891Z,1010.67
2017-10-17T04:53:17.415Z,1010.72
2017-10-17T04:53:58.919Z,1010.68
2017-10-17T04:54:38.559Z,1010.67
2017-10-17T04:55:19.107Z,1010.66
2017-10-17T04:55:59.643Z,1010.62
2017-10-17T04:56:40.195Z,1010.67
2017-10-17T04:57:20.765Z,1010.65
2017-10-17T04:58:01.310Z,1010.66
2017-10-17T04:58:41.869Z,1010.65
2017-10-17T04:59:22.417Z,1010.63
2017-10-17T05:00:02.962Z,1010.63
2017-10-17T05:00:43.508Z,1010.61
2017-10-17T05:01:24.037Z,1010.6
2017-10-17T05:02:04.874Z,1010.6
2017-10-17T05:02:45.396Z,1010.64
2017-10-17T05:03:25.920Z,1010.67
2017-10-17T05:04:07.097Z,1010.64
2017-10-17T05:04:47.682Z,1010.6
2017-10-17T05:05:28.211Z,1010.67
2017-10-17T05:06:08.816Z,1010.69
2017-10-17T05:06:49.309Z,1010.68
2017-10-17T05:07:29.874Z,1010.67
2017-10-17T05:08:10.396Z,1010.66
2017-10-17T05:08:50.973Z,1010.63
2017-10-17T05:09:31.514Z,1010.64
2017-10-17T05:10:12.009Z,1010.69
2017-10-17T05:10:52.716Z,1010.69
2017-10-17T05:11:33.167Z,1010.72
2017-10-17T05:12:13.734Z,1010.7
2017-10-17T05:12:54.318Z,1010.74
2017-10-17T05:13:34.861Z,1010.73
2017-10-17T05:14:15.393Z,1010.74
2017-10-17T05:14:56.079Z,1010.69
2017-10-17T05:15:36.477Z,1010.74
2017-10-17T05:16:17.048Z,1010.7
2017-10-17T05:16:57.568Z,1010.71
2017-10-17T05:17:38.100Z,1010.71
2017-10-17T05:18:18.631Z,1010.72
2017-10-17T05:18:59.174Z,1010.73
2017-10-17T05:19:39.788Z,1010.75
2017-10-17T05:20:20.298Z,1010.66
2017-10-17T05:21:00.835Z,1010.67
2017-10-17T05:21:41.409Z,1010.74
2017-10-17T05:22:21.900Z,1010.69
2017-10-17T05:23:02.401Z,1010.72
2017-10-17T05:23:43.019Z,1010.72
2017-10-17T05:24:23.521Z,1010.72
2017-10-17T05:25:04.117Z,1010.71
2017-10-17T05:25:44.649Z,1010.69
2017-10-17T05:26:25.211Z,1010.69
2017-10-17T05:27:05.740Z,1010.64
2017-10-17T05:27:46.301Z,1010.69
2017-10-17T05:28:26.842Z,1010.66
2017-10-17T05:29:07.353Z,1010.63
2017-10-17T05:29:47.944Z,1010.68
2017-10-17T05:30:28.433Z,1010.67
2017-10-17T05:31:08.961Z,1010.68
2017-10-17T05:31:49.527Z,1010.68
2017-10-17T05:32:30.111Z,1010.67
2017-10-17T05:33:10.621Z,1010.72
2017-10-17T05:33:51.188Z,1010.69
2017-10-17T05:34:31.739Z,1010.63
2017-10-17T05:35:12.285Z,1010.67
2017-10-17T05:35:52.842Z,1010.61
2017-10-17T05:36:33.433Z,1010.65
2017-10-17T05:37:13.957Z,1010.67
2017-10-17T05:37:54.476Z,1010.72
2017-10-17T05:38:35.026Z,1010.66
2017-10-17T05:39:15.577Z,1010.66
2017-10-17T05:39:56.109Z,1010.68
2017-10-17T05:40:36.642Z,1010.68
2017-10-17T05:41:17.192Z,1010.65
2017-10-17T05:41:57.769Z,1010.66
2017-10-17T05:42:38.324Z,1010.68
2017-10-17T05:43:18.888Z,1010.69
2017-10-17T05:43:59.491Z,1010.72
2017-10-17T05:44:40.024Z,1010.7
2017-10-17T05:45:20.563Z,1010.67
2017-10-17T05:46:01.110Z,1010.64
2017-10-17T05:46:41.671Z,1010.72
2017-10-17T05:47:22.172Z,1010.73
2017-10-17T05:48:02.879Z,1010.77
2017-10-17T05:48:43.328Z,1010.78
2017-10-17T05:49:23.919Z,1010.74
2017-10-17T05:50:04.505Z,1010.77
2017-10-17T05:50:45.052Z,1010.76
2017-10-17T05:51:25.655Z,1010.76
2017-10-17T05:52:06.124Z,1010.79
2017-10-17T05:52:46.632Z,1010.8
2017-10-17T05:53:27.190Z,1010.8
2017-10-17T05:54:07.695Z,1010.81
2017-10-17T05:54:48.218Z,1010.8
2017-10-17T05:55:28.777Z,1010.82
2017-10-17T05:56:09.308Z,1010.85
2017-10-17T05:56:50.287Z,1010.82
2017-10-17T05:57:30.888Z,1010.86
2017-10-17T05:58:11.376Z,1010.87
2017-10-17T05:58:51.921Z,1010.89
2017-10-17T05:59:32.441Z,1010.91
2017-10-17T06:00:12.993Z,1010.93
2017-10-17T06:00:53.507Z,1010.88
2017-10-17T06:01:34.089Z,1010.91
2017-10-17T06:02:14.593Z,1010.88
2017-10-17T06:02:55.162Z,1010.89
2017-10-17T06:03:35.651Z,1010.96
2017-10-17T06:04:16.171Z,1010.88
2017-10-17T06:04:56.751Z,1010.91
2017-10-17T06:05:37.434Z,1010.91
2017-10-17T06:06:18.051Z,1010.94
2017-10-17T06:06:58.602Z,1010.93
2017-10-17T06:07:39.170Z,1010.91
2017-10-17T06:08:19.768Z,1010.91
2017-10-17T06:09:00.314Z,1010.93
2017-10-17T06:09:40.844Z,1010.9
2017-10-17T06:10:21.356Z,1010.92
2017-10-17T06:11:02.044Z,1010.88
2017-10-17T06:11:42.560Z,1010.94
2017-10-17T06:12:23.114Z,1010.92
2017-10-17T06:13:03.640Z,1010.92
2017-10-17T06:13:44.169Z,1010.92
2017-10-17T06:14:24.714Z,1010.93
2017-10-17T06:15:05.365Z,1010.93
2017-10-17T06:15:45.895Z,1010.92
2017-10-17T06:16:26.406Z,1010.93
2017-10-17T06:17:07.080Z,1010.94
2017-10-17T06:17:47.635Z,1010.91
2017-10-17T06:18:28.178Z,1010.99
2017-10-17T06:19:08.715Z,1010.97
2017-10-17T06:19:49.249Z,1010.99
2017-10-17T06:20:29.777Z,1011
2017-10-17T06:21:10.341Z,1010.97
2017-10-17T06:21:50.880Z,1010.99
2017-10-17T06:22:31.420Z,1010.99
2017-10-17T06:23:11.964Z,1011
2017-10-17T06:23:52.566Z,1010.99
2017-10-17T06:24:33.075Z,1010.95
2017-10-17T06:25:13.615Z,1010.98
2017-10-17T06:25:54.146Z,1010.96
2017-10-17T06:26:34.729Z,1010.97
2017-10-17T06:27:15.278Z,1010.98
2017-10-17T06:27:55.881Z,1010.98
2017-10-17T06:28:36.397Z,1010.99
2017-10-17T06:29:17.006Z,1010.99
2017-10-17T06:29:57.535Z,1011.01
2017-10-17T06:30:38.083Z,1011.01
2017-10-17T06:31:18.743Z,1011.06
2017-10-17T06:31:59.262Z,1011.05
2017-10-17T06:32:39.792Z,1011.05
2017-10-17T06:33:20.354Z,1011.06
2017-10-17T06:34:00.926Z,1011.04
2017-10-17T06:34:41.459Z,1011.11
2017-10-17T06:35:21.996Z,1011.07
2017-10-17T06:36:02.573Z,1011.05
2017-10-17T06:36:43.089Z,1011.05
2017-10-17T06:37:23.677Z,1011.09
2017-10-17T06:38:04.202Z,1011.07
2017-10-17T06:38:44.745Z,1011.1
2017-10-17T06:39:25.270Z,1011.09
2017-10-17T06:40:05.859Z,1011.14
2017-10-17T06:40:46.414Z,1011.12
2017-10-17T06:41:26.988Z,1011.07
2017-10-17T06:42:07.569Z,1011.14
2017-10-17T06:42:48.125Z,1011.11
2017-10-17T06:43:28.688Z,1011.13
2017-10-17T06:44:09.215Z,1011.08
2017-10-17T06:44:49.763Z,1011.08
2017-10-17T06:45:30.352Z,1011.09
2017-10-17T06:46:10.864Z,1011.1
2017-10-17T06:46:51.424Z,1011.07
2017-10-17T06:47:31.959Z,1011.04
2017-10-17T06:48:12.437Z,1011.1
2017-10-17T06:48:52.980Z,1011.09
2017-10-17T06:49:33.561Z,1011.1
2017-10-17T06:50:14.115Z,1011.09
2017-10-17T06:50:54.604Z,1011.09
2017-10-17T06:51:35.210Z,1011.11
2017-10-17T06:52:15.690Z,1011.1
2017-10-17T06:52:56.256Z,1011.08
2017-10-17T06:53:36.895Z,1011.08
2017-10-17T06:54:17.449Z,1011.09
2017-10-17T06:54:57.954Z,1011.08
2017-10-17T06:55:38.529Z,1011.08
2017-10-17T06:56:19.094Z,1011.07
2017-10-17T06:56:59.655Z,1011.07
2017-10-17T06:57:40.236Z,1011.06
2017-10-17T06:58:20.730Z,1011.06
2017-10-17T06:59:01.265Z,1011.12
2017-10-17T06:59:41.835Z,1011.1
2017-10-17T07:00:22.352Z,1011.07
2017-10-17T07:01:02.899Z,1011.05
2017-10-17T07:01:43.518Z,1011.07
2017-10-17T07:02:24.121Z,1011.09
2017-10-17T07:03:04.588Z,1011.07
2017-10-17T07:03:45.131Z,1011.09
2017-10-17T07:04:25.658Z,1011.09
2017-10-17T07:05:06.177Z,1011.08
2017-10-17T07:05:46.704Z,1011.09
2017-10-17T07:06:27.267Z,1011.12
2017-10-17T07:07:07.893Z,1011.17
2017-10-17T07:07:48.408Z,1011.15
2017-10-17T07:08:29.091Z,1011.15
2017-10-17T07:09:09.550Z,1011.15
2017-10-17T07:09:50.077Z,1011.19
2017-10-17T07:10:30.612Z,1011.17
2017-10-17T07:11:11.200Z,1011.14
2017-10-17T07:11:51.730Z,1011.13
2017-10-17T07:12:32.274Z,1011.11
2017-10-17T07:13:12.817Z,1011.12
2017-10-17T07:13:53.352Z,1011.15
2017-10-17T07:14:33.860Z,1011.18
2017-10-17T07:15:14.412Z,1011.12
2017-10-17T07:15:54.963Z,1011.18
2017-10-17T07:16:35.483Z,1011.18
2017-10-17T07:17:16.065Z,1011.18
2017-10-17T07:17:56.638Z,1011.13
2017-10-17T07:18:37.225Z,1011.17
2017-10-17T07:19:17.790Z,1011.2
2017-10-17T07:19:58.283Z,1011.18
2017-10-17T07:20:38.927Z,1011.18
2017-10-17T07:21:19.450Z,1011.26
2017-10-17T07:21:59.959Z,1011.24
2017-10-17T07:22:40.560Z,1011.23
2017-10-17T07:23:21.038Z,1011.28
2017-10-17T07:24:01.646Z,1011.27
2017-10-17T07:24:42.257Z,1011.3
2017-10-17T07:25:22.861Z,1011.31
2017-10-17T07:26:03.392Z,1011.31
2017-10-17T07:26:43.936Z,1011.31
2017-10-17T07:27:24.508Z,1011.36
2017-10-17T07:28:05.072Z,1011.35
2017-10-17T07:28:45.623Z,1011.3
2017-10-17T07:29:26.137Z,1011.28
2017-10-17T07:30:06.737Z,1011.34
2017-10-17T07:30:47.263Z,1011.36
2017-10-17T07:31:28.451Z,1011.37
2017-10-17T07:32:08.917Z,1011.42
2017-10-17T07:32:49.539Z,1011.35
2017-10-17T07:33:30.251Z,1011.35
2017-10-17T07:34:10.881Z,1011.34
2017-10-17T07:34:51.410Z,1011.35
2017-10-17T07:35:31.957Z,1011.3
2017-10-17T07:36:12.556Z,1011.31
2017-10-17T07:36:53.076Z,1011.28
2017-10-17T07:37:33.608Z,1011.3
2017-10-17T07:38:14.145Z,1011.32
2017-10-17T07:38:54.675Z,1011.32
2017-10-17T07:39:35.227Z,1011.29
2017-10-17T07:40:15.830Z,1011.3
2017-10-17T07:40:56.313Z,1011.38
2017-10-17T07:41:37.023Z,1011.36
2017-10-17T07:42:18.009Z,1011.37
2017-10-17T07:42:57.985Z,1011.3
2017-10-17T07:43:38.587Z,1011.29
2017-10-17T07:44:19.116Z,1011.27
2017-10-17T07:44:59.654Z,1011.29
2017-10-17T07:45:40.209Z,1011.29
2017-10-17T07:46:20.806Z,1011.33
2017-10-17T07:47:01.329Z,1011.34
2017-10-17T07:47:41.841Z,1011.28
2017-10-17T07:48:22.415Z,1011.33
2017-10-17T07:49:02.979Z,1011.28
2017-10-17T07:49:43.529Z,1011.31
2017-10-17T07:50:24.040Z,1011.28
2017-10-17T07:51:04.649Z,1011.28
2017-10-17T07:51:45.175Z,1011.27
2017-10-17T07:52:25.721Z,1011.29
2017-10-17T07:53:06.264Z,1011.26
2017-10-17T07:53:46.821Z,1011.25
2017-10-17T07:54:27.367Z,1011.27
2017-10-17T07:55:07.930Z,1011.24
2017-10-17T07:55:48.449Z,1011.25
2017-10-17T07:56:28.967Z,1011.27
2017-10-17T07:57:09.626Z,1011.25
2017-10-17T07:57:50.206Z,1011.27
2017-10-17T07:58:30.836Z,1011.32
2017-10-17T07:59:11.380Z,1011.25
2017-10-17T07:59:52.291Z,1011.27
2017-10-17T08:00:32.877Z,1011.26
2017-10-17T08:01:13.398Z,1011.25
2017-10-17T08:01:53.921Z,1011.25
2017-10-17T08:02:34.514Z,1011.18
2017-10-17T08:03:15.120Z,1011.2
2017-10-17T08:03:55.636Z,1011.22
2017-10-17T08:04:36.316Z,1011.23
2017-10-17T08:05:16.899Z,1011.26
2017-10-17T08:05:57.469Z,1011.25
2017-10-17T08:06:37.978Z,1011.22
2017-10-17T08:07:18.540Z,1011.23
2017-10-17T08:07:59.029Z,1011.21
2017-10-17T08:08:39.826Z,1011.19
2017-10-17T08:09:20.376Z,1011.19
2017-10-17T08:10:00.936Z,1011.22
2017-10-17T08:10:41.493Z,1011.19
2017-10-17T08:11:22.282Z,1011.23
2017-10-17T08:12:02.737Z,1011.23
2017-10-17T08:12:43.237Z,1011.23